sensor_id;sensor_type;location;lat;lon;timestamp;P1;durP1;ratioP1;P2;durP2;ratioP2
9280;SDS011;4679;47.966;7.958;2023-07-02T07:12:06;24.23;;;17.17;;
9280;SDS011;4679;47.966;7.958;2023-07-02T07:14:08;23.40;;;16.53;;
9280;SDS011;4679;47.966;7.958;2023-07-02T07:16:11;25.43;;;15.87;;
9280;SDS011;4679;47.966;7.958;2023-07-02T07:18:12;26.43;;;17.20;;
9280;SDS011;4679;47.966;7.958;2023-07-02T07:20:14;26.17;;;16.60;;
9280;SDS011;4679;47.966;7.958;2023-07-02T07:22:17;22.53;;;15.63;;
9280;SDS011;4679;47.966;7.958;2023-07-02T07:24:18;25.60;;;15.67;;
9280;SDS011;4679;47.966;7.958;2023-07-02T07:26:20;27.67;;;15.97;;
9280;SDS011;4679;47.966;7.958;2023-07-02T07:28:23;24.73;;;17.40;;
9280;SDS011;4679;47.966;7.958;2023-07-02T07:30:25;27.17;;;17.90;;
9280;SDS011;4679;47.966;7.958;2023-07-02T07:32:26;26.53;;;17.97;;
9280;SDS011;4679;47.966;7.958;2023-07-02T07:34:28;24.23;;;17.87;;
9280;SDS011;4679;47.966;7.958;2023-07-02T07:36:30;24.13;;;17.07;;
9280;SDS011;4679;47.966;7.958;2023-07-02T07:38:31;28.53;;;17.97;;
9280;SDS011;4679;47.966;7.958;2023-07-02T07:40:33;27.23;;;18.57;;
9280;SDS011;4679;47.966;7.958;2023-07-02T07:42:35;27.20;;;16.20;;
9280;SDS011;4679;47.966;7.958;2023-07-02T07:44:38;26.70;;;17.67;;
9280;SDS011;4679;47.966;7.958;2023-07-02T07:46:39;24.10;;;16.63;;
9280;SDS011;4679;47.966;7.958;2023-07-02T07:48:41;24.93;;;17.97;;
9280;SDS011;4679;47.966;7.958;2023-07-02T07:50:43;24.20;;;16.63;;
9280;SDS011;4679;47.966;7.958;2023-07-02T07:52:45;27.60;;;18.60;;
9280;SDS011;4679;47.966;7.958;2023-07-02T07:54:46;27.37;;;17.97;;
9280;SDS011;4679;47.966;7.958;2023-07-02T07:56:48;29.20;;;18.53;;
9280;SDS011;4679;47.966;7.958;2023-07-02T07:58:50;24.10;;;18.20;;
9280;SDS011;4679;47.966;7.958;2023-07-02T08:00:53;26.53;;;18.23;;
9280;SDS011;4679;47.966;7.958;2023-07-02T08:02:54;24.90;;;17.50;;
9280;SDS011;4679;47.966;7.958;2023-07-02T08:04:56;27.63;;;19.03;;
9280;SDS011;4679;47.966;7.958;2023-07-02T08:06:58;27.20;;;18.10;;
9280;SDS011;4679;47.966;7.958;2023-07-02T08:09:00;24.90;;;17.67;;
9280;SDS011;4679;47.966;7.958;2023-07-02T08:11:03;28.20;;;17.13;;
9280;SDS011;4679;47.966;7.958;2023-07-02T08:13:04;28.30;;;18.90;;
9280;SDS011;4679;47.966;7.958;2023-07-02T08:15:06;30.70;;;17.90;;
9280;SDS011;4679;47.966;7.958;2023-07-02T08:17:10;25.40;;;17.93;;
9280;SDS011;4679;47.966;7.958;2023-07-02T08:19:12;29.03;;;19.10;;
9280;SDS011;4679;47.966;7.958;2023-07-02T08:21:13;22.63;;;17.60;;
9280;SDS011;4679;47.966;7.958;2023-07-02T08:23:15;24.00;;;17.13;;
9280;SDS011;4679;47.966;7.958;2023-07-02T08:25:17;26.37;;;18.37;;
9280;SDS011;4679;47.966;7.958;2023-07-02T08:27:18;21.53;;;16.67;;
9280;SDS011;4679;47.966;7.958;2023-07-02T08:29:20;25.20;;;17.80;;
9280;SDS011;4679;47.966;7.958;2023-07-02T08:31:22;24.07;;;17.60;;
9280;SDS011;4679;47.966;7.958;2023-07-02T08:33:25;24.73;;;17.87;;
9280;SDS011;4679;47.966;7.958;2023-07-02T08:35:26;25.77;;;17.63;;
9280;SDS011;4679;47.966;7.958;2023-07-02T08:37:28;26.33;;;17.57;;
9280;SDS011;4679;47.966;7.958;2023-07-02T08:39:30;25.97;;;17.03;;
9280;SDS011;4679;47.966;7.958;2023-07-02T08:41:41;26.00;;;16.83;;
9280;SDS011;4679;47.966;7.958;2023-07-02T08:43:44;22.40;;;16.43;;
9280;SDS011;4679;47.966;7.958;2023-07-02T08:45:45;26.17;;;17.33;;
9280;SDS011;4679;47.966;7.958;2023-07-02T08:47:47;25.43;;;15.90;;
9280;SDS011;4679;47.966;7.958;2023-07-02T08:49:52;24.90;;;16.40;;
9280;SDS011;4679;47.966;7.958;2023-07-02T08:51:53;24.10;;;17.63;;
9280;SDS011;4679;47.966;7.958;2023-07-02T08:53:55;27.33;;;17.23;;
9280;SDS011;4679;47.966;7.958;2023-07-02T08:55:57;26.77;;;17.03;;
9280;SDS011;4679;47.966;7.958;2023-07-02T08:57:59;23.73;;;16.40;;
9280;SDS011;4679;47.966;7.958;2023-07-02T09:00:03;27.40;;;16.73;;
9280;SDS011;4679;47.966;7.958;2023-07-02T09:02:07;25.70;;;16.83;;
9280;SDS011;4679;47.966;7.958;2023-07-02T09:04:14;22.63;;;16.43;;
9280;SDS011;4679;47.966;7.958;2023-07-02T09:06:18;24.00;;;16.90;;
9280;SDS011;4679;47.966;7.958;2023-07-02T09:08:23;20.57;;;14.37;;
9280;SDS011;4679;47.966;7.958;2023-07-02T09:10:25;22.93;;;15.10;;
9280;SDS011;4679;47.966;7.958;2023-07-02T09:12:29;22.73;;;15.77;;
9280;SDS011;4679;47.966;7.958;2023-07-02T09:14:32;21.57;;;15.40;;
9280;SDS011;4679;47.966;7.958;2023-07-02T09:16:34;21.33;;;16.23;;
9280;SDS011;4679;47.966;7.958;2023-07-02T09:18:38;21.33;;;15.07;;
9280;SDS011;4679;47.966;7.958;2023-07-02T09:20:39;24.13;;;15.03;;
9280;SDS011;4679;47.966;7.958;2023-07-02T09:22:53;18.90;;;14.17;;
9280;SDS011;4679;47.966;7.958;2023-07-02T09:24:55;20.33;;;14.60;;
9280;SDS011;4679;47.966;7.958;2023-07-02T09:26:58;20.23;;;14.33;;
9280;SDS011;4679;47.966;7.958;2023-07-02T09:29:02;19.97;;;14.13;;
9280;SDS011;4679;47.966;7.958;2023-07-02T09:31:03;21.20;;;14.47;;
9280;SDS011;4679;47.966;7.958;2023-07-02T09:33:06;21.70;;;15.77;;
9280;SDS011;4679;47.966;7.958;2023-07-02T09:35:09;19.27;;;14.50;;
9280;SDS011;4679;47.966;7.958;2023-07-02T09:37:11;24.00;;;14.35;;
9280;SDS011;4679;47.966;7.958;2023-07-02T09:39:14;19.33;;;13.67;;
9280;SDS011;4679;47.966;7.958;2023-07-02T09:41:20;19.83;;;14.70;;
9280;SDS011;4679;47.966;7.958;2023-07-02T09:43:22;18.80;;;13.32;;
9280;SDS011;4679;47.966;7.958;2023-07-02T09:45:25;22.95;;;13.90;;
9280;SDS011;4679;47.966;7.958;2023-07-02T09:47:28;19.42;;;14.57;;
9280;SDS011;4679;47.966;7.958;2023-07-02T09:49:31;18.65;;;14.00;;
9280;SDS011;4679;47.966;7.958;2023-07-02T09:51:33;19.27;;;13.73;;
9280;SDS011;4679;47.966;7.958;2023-07-02T09:53:35;21.45;;;13.77;;
9280;SDS011;4679;47.966;7.958;2023-07-02T09:55:39;17.80;;;13.70;;
9280;SDS011;4679;47.966;7.958;2023-07-02T09:57:43;20.35;;;13.40;;
9280;SDS011;4679;47.966;7.958;2023-07-02T09:59:45;20.02;;;13.80;;
9280;SDS011;4679;47.966;7.958;2023-07-02T10:01:47;18.48;;;13.93;;
9280;SDS011;4679;47.966;7.958;2023-07-02T10:03:49;16.20;;;12.20;;
9280;SDS011;4679;47.966;7.958;2023-07-02T10:05:50;18.65;;;13.38;;
9280;SDS011;4679;47.966;7.958;2023-07-02T10:08:12;18.13;;;13.07;;
9280;SDS011;4679;47.966;7.958;2023-07-02T10:10:24;18.15;;;13.00;;
9280;SDS011;4679;47.966;7.958;2023-07-02T10:12:29;21.95;;;13.32;;
9280;SDS011;4679;47.966;7.958;2023-07-02T10:14:40;18.88;;;12.02;;
9280;SDS011;4679;47.966;7.958;2023-07-02T10:16:51;18.13;;;14.13;;
9280;SDS011;4679;47.966;7.958;2023-07-02T10:18:53;20.23;;;12.45;;
9280;SDS011;4679;47.966;7.958;2023-07-02T10:20:55;17.55;;;12.48;;
9280;SDS011;4679;47.966;7.958;2023-07-02T10:22:57;15.77;;;12.35;;
9280;SDS011;4679;47.966;7.958;2023-07-02T10:24:58;18.73;;;13.07;;
9280;SDS011;4679;47.966;7.958;2023-07-02T10:27:01;17.70;;;12.45;;
9280;SDS011;4679;47.966;7.958;2023-07-02T10:29:05;18.80;;;13.20;;
9280;SDS011;4679;47.966;7.958;2023-07-02T10:31:17;15.23;;;11.55;;
9280;SDS011;4679;47.966;7.958;2023-07-02T10:33:19;18.35;;;12.48;;
9280;SDS011;4679;47.966;7.958;2023-07-02T10:35:21;19.77;;;12.77;;
9280;SDS011;4679;47.966;7.958;2023-07-02T10:37:23;18.17;;;12.57;;
9280;SDS011;4679;47.966;7.958;2023-07-02T10:39:24;17.50;;;12.13;;
9280;SDS011;4679;47.966;7.958;2023-07-02T10:41:27;17.75;;;12.40;;
9280;SDS011;4679;47.966;7.958;2023-07-02T10:43:31;15.23;;;10.38;;
9280;SDS011;4679;47.966;7.958;2023-07-02T10:45:34;16.13;;;11.48;;
9280;SDS011;4679;47.966;7.958;2023-07-02T10:47:39;15.48;;;11.02;;
9280;SDS011;4679;47.966;7.958;2023-07-02T10:49:40;14.85;;;11.77;;
9280;SDS011;4679;47.966;7.958;2023-07-02T10:51:42;15.98;;;11.25;;
9280;SDS011;4679;47.966;7.958;2023-07-02T10:53:44;15.00;;;10.73;;
9280;SDS011;4679;47.966;7.958;2023-07-02T10:55:45;15.55;;;10.70;;
9280;SDS011;4679;47.966;7.958;2023-07-02T10:57:48;18.80;;;11.10;;
9280;SDS011;4679;47.966;7.958;2023-07-02T10:59:51;14.02;;;11.80;;
9280;SDS011;4679;47.966;7.958;2023-07-02T11:01:54;17.30;;;11.25;;
9280;SDS011;4679;47.966;7.958;2023-07-02T11:03:56;14.15;;;10.73;;
9280;SDS011;4679;47.966;7.958;2023-07-02T11:05:59;12.98;;;9.75;;
9280;SDS011;4679;47.966;7.958;2023-07-02T11:08:07;15.27;;;10.73;;
9280;SDS011;4679;47.966;7.958;2023-07-02T11:10:10;14.77;;;11.20;;
9280;SDS011;4679;47.966;7.958;2023-07-02T11:12:26;10.82;;;9.38;;
9280;SDS011;4679;47.966;7.958;2023-07-02T11:14:29;10.75;;;9.52;;
9280;SDS011;4679;47.966;7.958;2023-07-02T11:16:32;10.88;;;9.13;;
9280;SDS011;4679;47.966;7.958;2023-07-02T11:18:37;11.13;;;9.75;;
9280;SDS011;4679;47.966;7.958;2023-07-02T11:20:38;12.48;;;9.13;;
9280;SDS011;4679;47.966;7.958;2023-07-02T11:22:40;12.80;;;9.93;;
9280;SDS011;4679;47.966;7.958;2023-07-02T11:24:42;15.55;;;10.70;;
9280;SDS011;4679;47.966;7.958;2023-07-02T11:26:44;12.95;;;9.70;;
9280;SDS011;4679;47.966;7.958;2023-07-02T11:28:49;17.42;;;9.77;;
9280;SDS011;4679;47.966;7.958;2023-07-02T11:30:51;17.40;;;10.27;;
9280;SDS011;4679;47.966;7.958;2023-07-02T11:32:54;14.65;;;9.73;;
9280;SDS011;4679;47.966;7.958;2023-07-02T11:34:57;14.63;;;9.88;;
9280;SDS011;4679;47.966;7.958;2023-07-02T11:36:58;11.85;;;10.30;;
9280;SDS011;4679;47.966;7.958;2023-07-02T11:39:00;14.40;;;11.02;;
9280;SDS011;4679;47.966;7.958;2023-07-02T11:41:02;13.02;;;11.00;;
9280;SDS011;4679;47.966;7.958;2023-07-02T11:43:04;11.35;;;9.80;;
9280;SDS011;4679;47.966;7.958;2023-07-02T11:45:07;13.90;;;10.60;;
9280;SDS011;4679;47.966;7.958;2023-07-02T11:47:09;16.80;;;10.90;;
9280;SDS011;4679;47.966;7.958;2023-07-02T11:49:11;14.63;;;11.10;;
9280;SDS011;4679;47.966;7.958;2023-07-02T11:51:14;14.70;;;11.45;;
9280;SDS011;4679;47.966;7.958;2023-07-02T11:53:16;14.55;;;11.10;;
9280;SDS011;4679;47.966;7.958;2023-07-02T11:55:17;20.17;;;12.15;;
9280;SDS011;4679;47.966;7.958;2023-07-02T11:57:19;14.65;;;11.23;;
9280;SDS011;4679;47.966;7.958;2023-07-02T11:59:22;11.20;;;9.90;;
9280;SDS011;4679;47.966;7.958;2023-07-02T12:01:24;14.93;;;10.65;;
9280;SDS011;4679;47.966;7.958;2023-07-02T12:03:26;14.65;;;10.63;;
9280;SDS011;4679;47.966;7.958;2023-07-02T12:05:28;14.20;;;10.02;;
9280;SDS011;4679;47.966;7.958;2023-07-02T12:07:32;14.05;;;11.73;;
9280;SDS011;4679;47.966;7.958;2023-07-02T12:09:35;12.82;;;9.75;;
9280;SDS011;4679;47.966;7.958;2023-07-02T12:11:37;13.68;;;11.48;;
9280;SDS011;4679;47.966;7.958;2023-07-02T12:13:39;14.63;;;11.30;;
9280;SDS011;4679;47.966;7.958;2023-07-02T12:15:41;13.68;;;10.27;;
9280;SDS011;4679;47.966;7.958;2023-07-02T12:17:43;14.98;;;10.55;;
9280;SDS011;4679;47.966;7.958;2023-07-02T12:19:45;12.50;;;10.68;;
9280;SDS011;4679;47.966;7.958;2023-07-02T12:21:46;15.25;;;10.63;;
9280;SDS011;4679;47.966;7.958;2023-07-02T12:23:49;16.17;;;11.20;;
9280;SDS011;4679;47.966;7.958;2023-07-02T12:25:51;12.88;;;9.90;;
9280;SDS011;4679;47.966;7.958;2023-07-02T12:27:53;14.18;;;11.57;;
9280;SDS011;4679;47.966;7.958;2023-07-02T12:29:55;12.55;;;10.77;;
9280;SDS011;4679;47.966;7.958;2023-07-02T12:31:57;14.80;;;10.02;;
9280;SDS011;4679;47.966;7.958;2023-07-02T12:33:59;15.15;;;10.63;;
9280;SDS011;4679;47.966;7.958;2023-07-02T12:36:00;13.75;;;10.07;;
9280;SDS011;4679;47.966;7.958;2023-07-02T12:38:03;9.73;;;8.63;;
9280;SDS011;4679;47.966;7.958;2023-07-02T12:40:09;11.43;;;9.88;;
9280;SDS011;4679;47.966;7.958;2023-07-02T12:42:11;12.88;;;10.40;;
9280;SDS011;4679;47.966;7.958;2023-07-02T12:44:13;11.93;;;10.13;;
9280;SDS011;4679;47.966;7.958;2023-07-02T12:46:15;13.75;;;8.52;;
9280;SDS011;4679;47.966;7.958;2023-07-02T12:48:16;10.45;;;9.10;;
9280;SDS011;4679;47.966;7.958;2023-07-02T12:50:18;9.63;;;8.43;;
9280;SDS011;4679;47.966;7.958;2023-07-02T12:52:20;10.88;;;8.68;;
9280;SDS011;4679;47.966;7.958;2023-07-02T12:54:22;10.27;;;8.35;;
9280;SDS011;4679;47.966;7.958;2023-07-02T12:56:25;11.63;;;8.10;;
9280;SDS011;4679;47.966;7.958;2023-07-02T12:58:27;10.50;;;8.95;;
9280;SDS011;4679;47.966;7.958;2023-07-02T13:00:28;8.82;;;7.93;;
9280;SDS011;4679;47.966;7.958;2023-07-02T13:02:30;9.65;;;8.48;;
9280;SDS011;4679;47.966;7.958;2023-07-02T13:04:32;10.32;;;8.52;;
9280;SDS011;4679;47.966;7.958;2023-07-02T13:06:33;9.02;;;7.97;;
9280;SDS011;4679;47.966;7.958;2023-07-02T13:08:40;11.82;;;8.48;;
9280;SDS011;4679;47.966;7.958;2023-07-02T13:10:42;10.48;;;8.57;;
9280;SDS011;4679;47.966;7.958;2023-07-02T13:12:45;11.75;;;9.35;;
9280;SDS011;4679;47.966;7.958;2023-07-02T13:14:47;10.48;;;9.25;;
9280;SDS011;4679;47.966;7.958;2023-07-02T13:16:48;10.25;;;9.05;;
9280;SDS011;4679;47.966;7.958;2023-07-02T13:18:50;12.00;;;9.50;;
9280;SDS011;4679;47.966;7.958;2023-07-02T13:20:53;16.92;;;10.50;;
9280;SDS011;4679;47.966;7.958;2023-07-02T13:22:54;14.15;;;10.23;;
9280;SDS011;4679;47.966;7.958;2023-07-02T13:24:56;11.35;;;9.93;;
9280;SDS011;4679;47.966;7.958;2023-07-02T13:26:58;14.38;;;10.68;;
9280;SDS011;4679;47.966;7.958;2023-07-02T13:29:01;16.48;;;11.18;;
9280;SDS011;4679;47.966;7.958;2023-07-02T13:31:03;16.88;;;11.52;;
9280;SDS011;4679;47.966;7.958;2023-07-02T13:33:05;12.75;;;10.68;;
9280;SDS011;4679;47.966;7.958;2023-07-02T13:35:07;16.00;;;11.50;;
9280;SDS011;4679;47.966;7.958;2023-07-02T13:37:09;15.95;;;11.35;;
9280;SDS011;4679;47.966;7.958;2023-07-02T13:39:11;16.42;;;11.95;;
9280;SDS011;4679;47.966;7.958;2023-07-02T13:41:13;13.68;;;11.48;;
9280;SDS011;4679;47.966;7.958;2023-07-02T13:43:15;17.23;;;13.20;;
9280;SDS011;4679;47.966;7.958;2023-07-02T13:45:18;20.30;;;14.20;;
9280;SDS011;4679;47.966;7.958;2023-07-02T13:47:19;17.10;;;14.15;;
9280;SDS011;4679;47.966;7.958;2023-07-02T13:49:21;18.90;;;13.65;;
9280;SDS011;4679;47.966;7.958;2023-07-02T13:51:23;20.63;;;15.48;;
9280;SDS011;4679;47.966;7.958;2023-07-02T13:53:24;21.52;;;16.27;;
9280;SDS011;4679;47.966;7.958;2023-07-02T13:55:26;21.70;;;15.55;;
9280;SDS011;4679;47.966;7.958;2023-07-02T13:57:29;19.15;;;14.63;;
9280;SDS011;4679;47.966;7.958;2023-07-02T13:59:32;19.15;;;15.52;;
9280;SDS011;4679;47.966;7.958;2023-07-02T14:01:34;19.63;;;15.15;;
9280;SDS011;4679;47.966;7.958;2023-07-02T14:03:36;19.30;;;15.27;;
9280;SDS011;4679;47.966;7.958;2023-07-02T14:05:37;21.45;;;15.27;;
9280;SDS011;4679;47.966;7.958;2023-07-02T14:07:39;17.25;;;14.55;;
9280;SDS011;4679;47.966;7.958;2023-07-02T14:09:40;18.52;;;15.32;;
9280;SDS011;4679;47.966;7.958;2023-07-02T14:11:42;19.95;;;15.13;;
9280;SDS011;4679;47.966;7.958;2023-07-02T14:13:44;19.85;;;14.68;;
9280;SDS011;4679;47.966;7.958;2023-07-02T14:15:47;16.95;;;14.13;;
9280;SDS011;4679;47.966;7.958;2023-07-02T14:17:49;18.42;;;13.77;;
9280;SDS011;4679;47.966;7.958;2023-07-02T14:19:50;15.48;;;12.63;;
9280;SDS011;4679;47.966;7.958;2023-07-02T14:21:52;16.42;;;12.90;;
9280;SDS011;4679;47.966;7.958;2023-07-02T14:23:54;15.40;;;12.63;;
9280;SDS011;4679;47.966;7.958;2023-07-02T14:25:55;16.67;;;13.23;;
9280;SDS011;4679;47.966;7.958;2023-07-02T14:27:57;16.88;;;12.85;;
9280;SDS011;4679;47.966;7.958;2023-07-02T14:29:59;15.32;;;12.90;;
9280;SDS011;4679;47.966;7.958;2023-07-02T14:32:02;19.30;;;13.20;;
9280;SDS011;4679;47.966;7.958;2023-07-02T14:34:04;15.60;;;13.10;;
9280;SDS011;4679;47.966;7.958;2023-07-02T14:36:06;16.17;;;13.27;;
9280;SDS011;4679;47.966;7.958;2023-07-02T14:38:08;18.33;;;12.98;;
9280;SDS011;4679;47.966;7.958;2023-07-02T14:40:10;16.23;;;11.80;;
9280;SDS011;4679;47.966;7.958;2023-07-02T14:42:13;13.90;;;12.00;;
9280;SDS011;4679;47.966;7.958;2023-07-02T14:44:14;15.27;;;11.90;;
9280;SDS011;4679;47.966;7.958;2023-07-02T14:46:16;15.85;;;12.15;;
9280;SDS011;4679;47.966;7.958;2023-07-02T14:48:19;12.27;;;11.00;;
9280;SDS011;4679;47.966;7.958;2023-07-02T14:50:21;13.98;;;12.48;;
9280;SDS011;4679;47.966;7.958;2023-07-02T14:52:23;13.15;;;11.40;;
9280;SDS011;4679;47.966;7.958;2023-07-02T14:54:25;15.57;;;11.48;;
9280;SDS011;4679;47.966;7.958;2023-07-02T14:56:30;14.57;;;12.73;;
9280;SDS011;4679;47.966;7.958;2023-07-02T14:58:31;16.40;;;12.27;;
9280;SDS011;4679;47.966;7.958;2023-07-02T15:00:33;15.52;;;13.05;;
9280;SDS011;4679;47.966;7.958;2023-07-02T15:02:35;15.80;;;12.32;;
9280;SDS011;4679;47.966;7.958;2023-07-02T15:04:38;13.38;;;11.80;;
9280;SDS011;4679;47.966;7.958;2023-07-02T15:06:40;13.60;;;11.60;;
9280;SDS011;4679;47.966;7.958;2023-07-02T15:08:42;13.52;;;11.60;;
9280;SDS011;4679;47.966;7.958;2023-07-02T15:10:45;14.77;;;11.70;;
9280;SDS011;4679;47.966;7.958;2023-07-02T15:12:47;15.95;;;12.13;;
9280;SDS011;4679;47.966;7.958;2023-07-02T15:14:49;16.27;;;10.80;;
9280;SDS011;4679;47.966;7.958;2023-07-02T15:16:51;15.82;;;11.73;;
9280;SDS011;4679;47.966;7.958;2023-07-02T15:18:52;17.45;;;12.45;;
9280;SDS011;4679;47.966;7.958;2023-07-02T15:20:56;14.25;;;11.93;;
9280;SDS011;4679;47.966;7.958;2023-07-02T15:22:58;13.80;;;11.48;;
9280;SDS011;4679;47.966;7.958;2023-07-02T15:24:59;13.73;;;11.52;;
9280;SDS011;4679;47.966;7.958;2023-07-02T15:27:01;12.43;;;10.98;;
9280;SDS011;4679;47.966;7.958;2023-07-02T15:29:03;14.48;;;11.63;;
9280;SDS011;4679;47.966;7.958;2023-07-02T15:31:05;15.27;;;11.57;;
9280;SDS011;4679;47.966;7.958;2023-07-02T15:33:08;14.93;;;11.15;;
9280;SDS011;4679;47.966;7.958;2023-07-02T15:35:10;12.77;;;10.50;;
9280;SDS011;4679;47.966;7.958;2023-07-02T15:37:13;13.07;;;10.35;;
9280;SDS011;4679;47.966;7.958;2023-07-02T15:39:15;13.07;;;11.07;;
9280;SDS011;4679;47.966;7.958;2023-07-02T15:41:22;12.57;;;10.73;;
9280;SDS011;4679;47.966;7.958;2023-07-02T15:43:24;12.52;;;11.00;;
9280;SDS011;4679;47.966;7.958;2023-07-02T15:45:25;13.48;;;10.52;;
9280;SDS011;4679;47.966;7.958;2023-07-02T15:47:27;13.95;;;11.57;;
9280;SDS011;4679;47.966;7.958;2023-07-02T15:49:28;16.67;;;11.23;;
9280;SDS011;4679;47.966;7.958;2023-07-02T15:51:30;13.75;;;11.07;;
9280;SDS011;4679;47.966;7.958;2023-07-02T15:53:39;13.05;;;10.93;;
9280;SDS011;4679;47.966;7.958;2023-07-02T15:55:42;12.43;;;10.85;;
9280;SDS011;4679;47.966;7.958;2023-07-02T15:57:43;15.23;;;11.02;;
9280;SDS011;4679;47.966;7.958;2023-07-02T15:59:45;13.32;;;10.43;;
9280;SDS011;4679;47.966;7.958;2023-07-02T16:01:47;14.30;;;11.02;;
9280;SDS011;4679;47.966;7.958;2023-07-02T16:03:49;12.45;;;9.77;;
9280;SDS011;4679;47.966;7.958;2023-07-02T16:05:54;12.25;;;10.50;;
9280;SDS011;4679;47.966;7.958;2023-07-02T16:07:57;15.85;;;9.93;;
9280;SDS011;4679;47.966;7.958;2023-07-02T16:10:00;13.95;;;10.15;;
9280;SDS011;4679;47.966;7.958;2023-07-02T16:12:03;12.27;;;9.70;;
9280;SDS011;4679;47.966;7.958;2023-07-02T16:14:05;12.30;;;9.20;;
9280;SDS011;4679;47.966;7.958;2023-07-02T16:16:07;12.95;;;8.85;;
9280;SDS011;4679;47.966;7.958;2023-07-02T16:18:10;10.60;;;9.55;;
9280;SDS011;4679;47.966;7.958;2023-07-02T16:20:11;18.05;;;10.43;;
9280;SDS011;4679;47.966;7.958;2023-07-02T16:22:13;11.23;;;8.95;;
9280;SDS011;4679;47.966;7.958;2023-07-02T16:24:16;9.63;;;7.88;;
9280;SDS011;4679;47.966;7.958;2023-07-02T16:26:21;8.00;;;7.20;;
9280;SDS011;4679;47.966;7.958;2023-07-02T16:28:23;8.32;;;7.05;;
9280;SDS011;4679;47.966;7.958;2023-07-02T16:30:25;9.82;;;8.02;;
9280;SDS011;4679;47.966;7.958;2023-07-02T16:32:27;8.77;;;7.65;;
9280;SDS011;4679;47.966;7.958;2023-07-02T16:34:29;8.95;;;8.05;;
9280;SDS011;4679;47.966;7.958;2023-07-02T16:36:30;10.02;;;8.43;;
9280;SDS011;4679;47.966;7.958;2023-07-02T16:38:32;11.57;;;8.50;;
9280;SDS011;4679;47.966;7.958;2023-07-02T16:40:35;7.97;;;7.18;;
9280;SDS011;4679;47.966;7.958;2023-07-02T16:42:38;10.57;;;8.32;;
9280;SDS011;4679;47.966;7.958;2023-07-02T16:44:40;9.30;;;7.47;;
9280;SDS011;4679;47.966;7.958;2023-07-02T16:46:43;10.05;;;7.78;;
9280;SDS011;4679;47.966;7.958;2023-07-02T16:48:45;9.07;;;7.35;;
9280;SDS011;4679;47.966;7.958;2023-07-02T16:50:47;8.68;;;7.10;;
9280;SDS011;4679;47.966;7.958;2023-07-02T16:52:48;7.50;;;6.80;;
9280;SDS011;4679;47.966;7.958;2023-07-02T16:54:50;8.57;;;7.20;;
9280;SDS011;4679;47.966;7.958;2023-07-02T16:56:52;8.10;;;6.93;;
9280;SDS011;4679;47.966;7.958;2023-07-02T16:58:56;9.10;;;6.75;;
9280;SDS011;4679;47.966;7.958;2023-07-02T17:00:59;7.30;;;6.57;;
9280;SDS011;4679;47.966;7.958;2023-07-02T17:03:02;8.27;;;7.22;;
9280;SDS011;4679;47.966;7.958;2023-07-02T17:05:03;9.40;;;7.40;;
9280;SDS011;4679;47.966;7.958;2023-07-02T17:07:05;7.00;;;6.28;;
9280;SDS011;4679;47.966;7.958;2023-07-02T17:09:15;8.65;;;7.35;;
9280;SDS011;4679;47.966;7.958;2023-07-02T17:11:19;10.85;;;7.60;;
9280;SDS011;4679;47.966;7.958;2023-07-02T17:13:20;8.23;;;6.75;;
9280;SDS011;4679;47.966;7.958;2023-07-02T17:15:24;9.00;;;6.47;;
9280;SDS011;4679;47.966;7.958;2023-07-02T17:17:26;9.23;;;6.95;;
9280;SDS011;4679;47.966;7.958;2023-07-02T17:19:29;7.70;;;6.93;;
9280;SDS011;4679;47.966;7.958;2023-07-02T17:21:33;10.02;;;8.07;;
9280;SDS011;4679;47.966;7.958;2023-07-02T17:23:35;7.85;;;6.32;;
9280;SDS011;4679;47.966;7.958;2023-07-02T17:25:37;8.20;;;6.85;;
9280;SDS011;4679;47.966;7.958;2023-07-02T17:27:39;7.95;;;6.97;;
9280;SDS011;4679;47.966;7.958;2023-07-02T17:29:41;10.40;;;7.45;;
9280;SDS011;4679;47.966;7.958;2023-07-02T17:31:45;6.93;;;6.22;;
9280;SDS011;4679;47.966;7.958;2023-07-02T17:33:48;9.20;;;7.38;;
9280;SDS011;4679;47.966;7.958;2023-07-02T17:35:50;9.18;;;6.78;;
9280;SDS011;4679;47.966;7.958;2023-07-02T17:37:51;7.95;;;7.15;;
9280;SDS011;4679;47.966;7.958;2023-07-02T17:39:53;11.65;;;7.70;;
9280;SDS011;4679;47.966;7.958;2023-07-02T17:41:56;10.15;;;7.32;;
9280;SDS011;4679;47.966;7.958;2023-07-02T17:43:58;8.75;;;7.30;;
9280;SDS011;4679;47.966;7.958;2023-07-02T17:46:00;8.38;;;6.65;;
9280;SDS011;4679;47.966;7.958;2023-07-02T17:48:03;10.55;;;7.45;;
9280;SDS011;4679;47.966;7.958;2023-07-02T17:50:06;10.32;;;7.70;;
9280;SDS011;4679;47.966;7.958;2023-07-02T17:52:10;9.45;;;8.40;;
9280;SDS011;4679;47.966;7.958;2023-07-02T17:54:13;8.75;;;7.03;;
9280;SDS011;4679;47.966;7.958;2023-07-02T17:56:15;9.43;;;7.47;;
9280;SDS011;4679;47.966;7.958;2023-07-02T17:58:17;12.45;;;7.82;;
9280;SDS011;4679;47.966;7.958;2023-07-02T18:00:19;8.63;;;6.80;;
9280;SDS011;4679;47.966;7.958;2023-07-02T18:02:21;9.30;;;6.38;;
9280;SDS011;4679;47.966;7.958;2023-07-02T18:04:24;8.63;;;7.15;;
9280;SDS011;4679;47.966;7.958;2023-07-02T18:06:26;11.40;;;7.15;;
9280;SDS011;4679;47.966;7.958;2023-07-02T18:08:28;7.63;;;6.72;;
9280;SDS011;4679;47.966;7.958;2023-07-02T18:10:30;7.13;;;6.13;;
9280;SDS011;4679;47.966;7.958;2023-07-02T18:12:32;9.52;;;6.68;;
9280;SDS011;4679;47.966;7.958;2023-07-02T18:14:34;8.05;;;5.72;;
9280;SDS011;4679;47.966;7.958;2023-07-02T18:16:36;8.07;;;6.38;;
9280;SDS011;4679;47.966;7.958;2023-07-02T18:18:38;8.45;;;6.10;;
9280;SDS011;4679;47.966;7.958;2023-07-02T18:20:41;8.15;;;5.97;;
9280;SDS011;4679;47.966;7.958;2023-07-02T18:22:43;6.40;;;5.70;;
9280;SDS011;4679;47.966;7.958;2023-07-02T18:24:45;7.05;;;5.75;;
9280;SDS011;4679;47.966;7.958;2023-07-02T18:26:46;7.15;;;5.72;;
9280;SDS011;4679;47.966;7.958;2023-07-02T18:28:51;8.10;;;6.22;;
9280;SDS011;4679;47.966;7.958;2023-07-02T18:30:53;7.85;;;5.63;;
9280;SDS011;4679;47.966;7.958;2023-07-02T18:32:56;6.33;;;5.33;;
9280;SDS011;4679;47.966;7.958;2023-07-02T18:34:57;6.50;;;5.47;;
9280;SDS011;4679;47.966;7.958;2023-07-02T18:37:01;8.50;;;5.50;;
9280;SDS011;4679;47.966;7.958;2023-07-02T18:39:04;9.68;;;5.38;;
9280;SDS011;4679;47.966;7.958;2023-07-02T18:41:06;7.10;;;5.28;;
9280;SDS011;4679;47.966;7.958;2023-07-02T18:43:11;5.78;;;4.25;;
9280;SDS011;4679;47.966;7.958;2023-07-02T18:45:13;7.13;;;4.68;;
9280;SDS011;4679;47.966;7.958;2023-07-02T18:47:17;6.85;;;3.63;;
9280;SDS011;4679;47.966;7.958;2023-07-02T18:49:18;5.00;;;4.33;;
9280;SDS011;4679;47.966;7.958;2023-07-02T18:51:20;5.82;;;4.40;;
9280;SDS011;4679;47.966;7.958;2023-07-02T18:53:23;5.38;;;4.05;;
9280;SDS011;4679;47.966;7.958;2023-07-02T18:55:26;7.70;;;4.43;;
9280;SDS011;4679;47.966;7.958;2023-07-02T18:57:28;5.97;;;4.10;;
9280;SDS011;4679;47.966;7.958;2023-07-02T18:59:29;5.82;;;4.20;;
9280;SDS011;4679;47.966;7.958;2023-07-02T19:01:31;6.32;;;4.05;;
9280;SDS011;4679;47.966;7.958;2023-07-02T19:03:33;5.13;;;4.13;;
9280;SDS011;4679;47.966;7.958;2023-07-02T19:05:35;7.23;;;5.20;;
9280;SDS011;4679;47.966;7.958;2023-07-02T19:07:37;9.10;;;6.70;;
9280;SDS011;4679;47.966;7.958;2023-07-02T19:09:40;7.17;;;5.53;;
9280;SDS011;4679;47.966;7.958;2023-07-02T19:11:42;8.17;;;6.53;;
9280;SDS011;4679;47.966;7.958;2023-07-02T19:13:43;8.00;;;6.50;;
9280;SDS011;4679;47.966;7.958;2023-07-02T19:15:45;7.13;;;5.33;;
9280;SDS011;4679;47.966;7.958;2023-07-02T19:17:47;7.27;;;5.97;;
9280;SDS011;4679;47.966;7.958;2023-07-02T19:19:49;8.47;;;5.90;;
9280;SDS011;4679;47.966;7.958;2023-07-02T19:21:50;6.37;;;5.67;;
9280;SDS011;4679;47.966;7.958;2023-07-02T19:23:52;7.80;;;5.37;;
9280;SDS011;4679;47.966;7.958;2023-07-02T19:25:59;9.10;;;6.33;;
9280;SDS011;4679;47.966;7.958;2023-07-02T19:28:01;9.83;;;5.77;;
9280;SDS011;4679;47.966;7.958;2023-07-02T19:30:03;7.13;;;6.20;;
9280;SDS011;4679;47.966;7.958;2023-07-02T19:32:06;8.00;;;5.93;;
9280;SDS011;4679;47.966;7.958;2023-07-02T19:34:09;7.03;;;5.73;;
9280;SDS011;4679;47.966;7.958;2023-07-02T19:36:11;7.50;;;6.00;;